Time,TemperatureF,DewpointF,PressureIn,WindDirection,WindDirectionDegrees,WindSpeedMPH,WindSpeedGustMPH,Humidity,HourlyPrecipIn,Conditions,Clouds,dailyrainin,SolarRadiationWatts/m^2,SoftwareType,DateUTC
2013-12-08 00:12:00,39.0,21.0,29.91,WSW,249,28.0,41.0,47,-99.99,,,-99.99,0.000000,,2013-12-08 07:12:00,
2013-12-08 00:22:00,39.0,21.0,29.91,WSW,249,28.0,41.0,47,-99.99,,,-99.99,0.000000,,2013-12-08 07:22:00,
2013-12-08 00:32:00,39.0,21.0,29.91,WSW,249,28.0,41.0,47,-99.99,,,-99.99,0.000000,,2013-12-08 07:32:00,
2013-12-08 01:42:00,35.0,20.0,29.90,West,271,31.0,40.0,54,-99.99,,,-99.99,0.000000,,2013-12-08 08:42:00,
2013-12-08 02:11:00,36.0,19.0,29.89,West,262,35.0,44.0,49,-99.99,,,-99.99,0.000000,,2013-12-08 09:11:00,
2013-12-08 04:22:00,33.0,14.0,29.88,West,264,38.0,46.0,43,-99.99,,,-99.99,0.000000,,2013-12-08 11:22:00,
2013-12-08 04:33:00,33.0,14.0,29.88,West,264,38.0,46.0,43,-99.99,,,-99.99,0.000000,,2013-12-08 11:33:00,
2013-12-08 05:12:00,33.0,14.0,29.90,West,266,35.0,48.0,44,-99.99,,,-99.99,0.000000,,2013-12-08 12:12:00,
2013-12-08 06:42:00,32.0,14.0,29.90,West,263,36.0,46.0,46,-99.99,,,-99.99,0.000000,,2013-12-08 13:42:00,
2013-12-08 07:42:00,32.0,16.0,29.91,West,264,37.0,44.0,50,-99.99,,,-99.99,20.920000,,2013-12-08 14:42:00,
2013-12-08 08:22:00,32.0,16.0,29.93,West,264,36.0,42.0,50,-99.99,,,-99.99,102.510002,,2013-12-08 15:22:00,
2013-12-08 08:33:00,32.0,16.0,29.93,West,264,36.0,42.0,50,-99.99,,,-99.99,102.510002,,2013-12-08 15:33:00,
2013-12-08 09:23:00,33.0,16.0,29.91,West,259,44.0,53.0,48,-99.99,,,-99.99,257.320007,,2013-12-08 16:23:00,
2013-12-08 09:33:00,33.0,16.0,29.91,West,259,44.0,53.0,48,-99.99,,,-99.99,257.320007,,2013-12-08 16:33:00,
2013-12-08 09:53:00,34.0,17.0,29.91,West,262,50.0,59.0,49,-99.99,,,-99.99,364.010010,,2013-12-08 16:53:00,
2013-12-08 10:02:00,34.0,17.0,29.91,West,262,50.0,59.0,49,-99.99,,,-99.99,364.010010,,2013-12-08 17:02:00,
2013-12-08 10:22:00,35.0,18.0,29.91,WSW,258,49.0,61.0,48,-99.99,,,-99.99,393.989990,,2013-12-08 17:22:00,
2013-12-08 10:43:00,36.0,19.0,29.88,West,260,56.0,68.0,49,-99.99,,,-99.99,446.290009,,2013-12-08 17:43:00,
2013-12-08 12:22:00,40.0,22.0,29.92,West,262,46.0,57.0,48,-99.99,,,-99.99,529.969971,,2013-12-08 19:22:00,
2013-12-08 12:42:00,40.0,22.0,29.94,WSW,255,36.0,45.0,47,-99.99,,,-99.99,473.489990,,2013-12-08 19:42:00,
2013-12-08 13:53:00,42.0,21.0,29.90,WSW,258,39.0,53.0,42,-99.99,,,-99.99,394.690002,,2013-12-08 20:53:00,
2013-12-08 14:02:00,42.0,21.0,29.90,WSW,258,39.0,53.0,42,-99.99,,,-99.99,394.690002,,2013-12-08 21:02:00,
2013-12-08 14:43:00,43.0,21.0,29.88,West,261,45.0,56.0,41,-99.99,,,-99.99,328.440002,,2013-12-08 21:43:00,
2013-12-08 15:13:00,43.0,21.0,29.89,West,263,42.0,53.0,40,-99.99,,,-99.99,329.839996,,2013-12-08 22:13:00,
2013-12-08 15:23:00,43.0,21.0,29.89,West,263,42.0,53.0,40,-99.99,,,-99.99,329.839996,,2013-12-08 22:23:00,
2013-12-08 15:43:00,44.0,20.0,29.90,West,262,42.0,53.0,39,-99.99,,,-99.99,258.010010,,2013-12-08 22:43:00,
2013-12-08 16:42:00,43.0,21.0,29.90,West,265,40.0,49.0,41,-99.99,,,-99.99,112.970001,,2013-12-08 23:42:00,
2013-12-08 17:22:00,41.0,21.0,29.93,West,261,33.0,41.0,45,-99.99,,,-99.99,9.070000,,2013-12-09 00:22:00,
2013-12-08 17:32:00,41.0,21.0,29.93,West,261,33.0,41.0,45,-99.99,,,-99.99,9.070000,,2013-12-09 00:32:00,
2013-12-08 18:22:00,38.0,21.0,29.94,West,272,29.0,37.0,50,-99.99,,,-99.99,0.000000,,2013-12-09 01:22:00,
2013-12-08 18:42:00,37.0,22.0,29.96,West,274,24.0,32.0,53,-99.99,,,-99.99,0.000000,,2013-12-09 01:42:00,
2013-12-08 19:42:00,37.0,23.0,29.96,West,260,27.0,33.0,55,-99.99,,,-99.99,0.000000,,2013-12-09 02:42:00,
2013-12-08 19:53:00,38.0,23.0,29.95,West,262,30.0,37.0,54,-99.99,,,-99.99,0.000000,,2013-12-09 02:53:00,
2013-12-08 20:02:00,38.0,23.0,29.95,West,262,30.0,37.0,54,-99.99,,,-99.99,0.000000,,2013-12-09 03:02:00,
2013-12-08 20:43:00,38.0,23.0,29.95,WSW,255,26.0,33.0,54,-99.99,,,-99.99,0.000000,,2013-12-09 03:43:00,
2013-12-08 22:42:00,38.0,23.0,29.96,WSW,256,30.0,36.0,54,-99.99,,,-99.99,0.000000,,2013-12-09 05:42:00,
2013-12-08 23:42:00,37.0,24.0,29.98,West,262,29.0,36.0,58,-99.99,,,-99.99,0.000000,,2013-12-09 06:42:00,